sensor_id;sensor_type;location;lat;lon;timestamp;P1;durP1;ratioP1;P2;durP2;ratioP2
14203;SDS011;7185;51.854;6.622;2023-05-10T00:00:47;8.45;;;4.05;;
14203;SDS011;7185;51.854;6.622;2023-05-10T00:03:19;6.85;;;3.67;;
14203;SDS011;7185;51.854;6.622;2023-05-10T00:05:51;8.68;;;3.50;;
14203;SDS011;7185;51.854;6.622;2023-05-10T00:08:23;6.65;;;3.42;;
14203;SDS011;7185;51.854;6.622;2023-05-10T00:10:56;5.57;;;3.17;;
14203;SDS011;7185;51.854;6.622;2023-05-10T00:13:28;4.15;;;2.33;;
14203;SDS011;7185;51.854;6.622;2023-05-10T00:16:00;6.35;;;2.70;;
14203;SDS011;7185;51.854;6.622;2023-05-10T00:21:34;3.55;;;2.40;;
14203;SDS011;7185;51.854;6.622;2023-05-10T00:24:12;3.78;;;2.40;;
14203;SDS011;7185;51.854;6.622;2023-05-10T00:26:52;6.65;;;2.13;;
14203;SDS011;7185;51.854;6.622;2023-05-10T00:29:24;5.97;;;2.30;;
14203;SDS011;7185;51.854;6.622;2023-05-10T00:31:56;3.50;;;2.30;;
14203;SDS011;7185;51.854;6.622;2023-05-10T00:34:28;12.27;;;2.80;;
14203;SDS011;7185;51.854;6.622;2023-05-10T00:37:00;4.38;;;2.65;;
14203;SDS011;7185;51.854;6.622;2023-05-10T00:39:32;5.28;;;2.88;;
14203;SDS011;7185;51.854;6.622;2023-05-10T00:42:06;4.15;;;2.80;;
14203;SDS011;7185;51.854;6.622;2023-05-10T00:44:38;6.50;;;3.05;;
14203;SDS011;7185;51.854;6.622;2023-05-10T00:47:10;6.97;;;3.05;;
14203;SDS011;7185;51.854;6.622;2023-05-10T00:49:43;7.88;;;3.42;;
14203;SDS011;7185;51.854;6.622;2023-05-10T00:52:15;7.43;;;3.28;;
14203;SDS011;7185;51.854;6.622;2023-05-10T00:54:47;6.07;;;3.30;;
14203;SDS011;7185;51.854;6.622;2023-05-10T00:57:20;8.88;;;3.88;;
14203;SDS011;7185;51.854;6.622;2023-05-10T00:59:52;6.60;;;3.83;;
14203;SDS011;7185;51.854;6.622;2023-05-10T01:02:24;6.88;;;3.70;;
14203;SDS011;7185;51.854;6.622;2023-05-10T01:04:57;7.28;;;4.50;;
14203;SDS011;7185;51.854;6.622;2023-05-10T01:07:29;6.15;;;3.63;;
14203;SDS011;7185;51.854;6.622;2023-05-10T01:10:01;5.57;;;3.78;;
14203;SDS011;7185;51.854;6.622;2023-05-10T01:12:35;5.68;;;3.80;;
14203;SDS011;7185;51.854;6.622;2023-05-10T01:15:08;7.85;;;4.97;;
14203;SDS011;7185;51.854;6.622;2023-05-10T01:17:42;8.70;;;4.70;;
14203;SDS011;7185;51.854;6.622;2023-05-10T01:20:15;7.95;;;5.13;;
14203;SDS011;7185;51.854;6.622;2023-05-10T01:26:10;7.75;;;4.93;;
14203;SDS011;7185;51.854;6.622;2023-05-10T01:32:00;18.48;;;6.22;;
14203;SDS011;7185;51.854;6.622;2023-05-10T01:34:45;12.35;;;5.97;;
14203;SDS011;7185;51.854;6.622;2023-05-10T01:37:25;13.90;;;6.93;;
14203;SDS011;7185;51.854;6.622;2023-05-10T01:40:03;13.88;;;6.97;;
14203;SDS011;7185;51.854;6.622;2023-05-10T01:42:45;13.15;;;7.20;;
14203;SDS011;7185;51.854;6.622;2023-05-10T01:45:22;13.10;;;7.15;;
14203;SDS011;7185;51.854;6.622;2023-05-10T01:48:05;14.05;;;7.85;;
14203;SDS011;7185;51.854;6.622;2023-05-10T01:50:38;14.07;;;8.52;;
14203;SDS011;7185;51.854;6.622;2023-05-10T01:53:17;15.55;;;8.15;;
14203;SDS011;7185;51.854;6.622;2023-05-10T01:55:51;16.98;;;7.85;;
14203;SDS011;7185;51.854;6.622;2023-05-10T01:58:27;16.00;;;8.90;;
14203;SDS011;7185;51.854;6.622;2023-05-10T02:01:02;17.05;;;9.50;;
14203;SDS011;7185;51.854;6.622;2023-05-10T02:03:37;14.18;;;9.20;;
14203;SDS011;7185;51.854;6.622;2023-05-10T02:06:11;18.05;;;10.02;;
14203;SDS011;7185;51.854;6.622;2023-05-10T02:08:46;18.38;;;10.25;;
14203;SDS011;7185;51.854;6.622;2023-05-10T02:11:29;21.85;;;9.95;;
14203;SDS011;7185;51.854;6.622;2023-05-10T02:14:26;26.90;;;13.55;;
14203;SDS011;7185;51.854;6.622;2023-05-10T02:17:00;27.02;;;12.95;;
14203;SDS011;7185;51.854;6.622;2023-05-10T02:19:35;28.95;;;15.23;;
14203;SDS011;7185;51.854;6.622;2023-05-10T02:22:09;29.35;;;15.57;;
14203;SDS011;7185;51.854;6.622;2023-05-10T02:24:41;32.53;;;16.00;;
14203;SDS011;7185;51.854;6.622;2023-05-10T02:27:14;34.10;;;17.33;;
14203;SDS011;7185;51.854;6.622;2023-05-10T02:29:48;36.42;;;17.27;;
14203;SDS011;7185;51.854;6.622;2023-05-10T02:32:21;40.67;;;18.90;;
14203;SDS011;7185;51.854;6.622;2023-05-10T02:34:56;38.53;;;18.70;;
14203;SDS011;7185;51.854;6.622;2023-05-10T02:37:33;41.60;;;19.70;;
14203;SDS011;7185;51.854;6.622;2023-05-10T02:40:07;45.47;;;19.80;;
14203;SDS011;7185;51.854;6.622;2023-05-10T02:42:40;48.28;;;20.92;;
14203;SDS011;7185;51.854;6.622;2023-05-10T02:45:27;56.60;;;21.88;;
14203;SDS011;7185;51.854;6.622;2023-05-10T02:48:00;57.05;;;23.40;;
14203;SDS011;7185;51.854;6.622;2023-05-10T02:50:34;53.50;;;24.17;;
14203;SDS011;7185;51.854;6.622;2023-05-10T02:53:09;51.38;;;23.35;;
14203;SDS011;7185;51.854;6.622;2023-05-10T02:55:42;56.95;;;23.92;;
14203;SDS011;7185;51.854;6.622;2023-05-10T02:58:20;56.13;;;24.33;;
14203;SDS011;7185;51.854;6.622;2023-05-10T03:00:53;54.53;;;24.20;;
14203;SDS011;7185;51.854;6.622;2023-05-10T03:03:25;60.42;;;27.00;;
14203;SDS011;7185;51.854;6.622;2023-05-10T03:05:59;56.88;;;25.35;;
14203;SDS011;7185;51.854;6.622;2023-05-10T03:08:31;55.45;;;25.15;;
14203;SDS011;7185;51.854;6.622;2023-05-10T03:11:16;60.25;;;26.65;;
14203;SDS011;7185;51.854;6.622;2023-05-10T03:14:03;60.20;;;26.33;;
14203;SDS011;7185;51.854;6.622;2023-05-10T03:16:42;61.03;;;26.67;;
14203;SDS011;7185;51.854;6.622;2023-05-10T03:19:27;62.85;;;27.48;;
14203;SDS011;7185;51.854;6.622;2023-05-10T03:22:08;59.23;;;26.40;;
14203;SDS011;7185;51.854;6.622;2023-05-10T03:24:42;57.95;;;27.25;;
14203;SDS011;7185;51.854;6.622;2023-05-10T03:27:16;65.72;;;27.80;;
14203;SDS011;7185;51.854;6.622;2023-05-10T03:29:48;61.83;;;26.45;;
14203;SDS011;7185;51.854;6.622;2023-05-10T03:32:22;63.63;;;28.75;;
14203;SDS011;7185;51.854;6.622;2023-05-10T03:34:54;53.78;;;25.52;;
14203;SDS011;7185;51.854;6.622;2023-05-10T03:37:27;58.40;;;26.90;;
14203;SDS011;7185;51.854;6.622;2023-05-10T03:40:09;61.40;;;29.23;;
14203;SDS011;7185;51.854;6.622;2023-05-10T03:42:51;64.35;;;28.15;;
14203;SDS011;7185;51.854;6.622;2023-05-10T03:45:26;60.22;;;28.90;;
14203;SDS011;7185;51.854;6.622;2023-05-10T03:47:58;60.50;;;29.20;;
14203;SDS011;7185;51.854;6.622;2023-05-10T03:50:29;61.63;;;28.08;;
14203;SDS011;7185;51.854;6.622;2023-05-10T03:53:03;65.68;;;29.60;;
14203;SDS011;7185;51.854;6.622;2023-05-10T03:55:34;58.97;;;28.05;;
14203;SDS011;7185;51.854;6.622;2023-05-10T03:58:06;59.72;;;29.27;;
14203;SDS011;7185;51.854;6.622;2023-05-10T04:00:44;60.75;;;27.50;;
14203;SDS011;7185;51.854;6.622;2023-05-10T04:03:19;61.35;;;27.70;;
14203;SDS011;7185;51.854;6.622;2023-05-10T04:05:58;62.58;;;29.10;;
14203;SDS011;7185;51.854;6.622;2023-05-10T04:08:31;62.08;;;28.20;;
14203;SDS011;7185;51.854;6.622;2023-05-10T04:11:06;63.63;;;29.65;;
14203;SDS011;7185;51.854;6.622;2023-05-10T04:13:38;65.30;;;30.02;;
14203;SDS011;7185;51.854;6.622;2023-05-10T04:16:10;69.15;;;31.42;;
14203;SDS011;7185;51.854;6.622;2023-05-10T04:18:42;65.28;;;31.27;;
14203;SDS011;7185;51.854;6.622;2023-05-10T04:21:14;72.15;;;30.77;;
14203;SDS011;7185;51.854;6.622;2023-05-10T04:23:47;68.65;;;30.45;;
14203;SDS011;7185;51.854;6.622;2023-05-10T04:26:19;64.50;;;30.60;;
14203;SDS011;7185;51.854;6.622;2023-05-10T04:28:52;65.43;;;30.38;;
14203;SDS011;7185;51.854;6.622;2023-05-10T04:31:23;63.30;;;31.33;;
14203;SDS011;7185;51.854;6.622;2023-05-10T04:33:57;69.63;;;31.73;;
14203;SDS011;7185;51.854;6.622;2023-05-10T04:36:29;66.68;;;30.08;;
14203;SDS011;7185;51.854;6.622;2023-05-10T04:39:07;67.30;;;33.15;;
14203;SDS011;7185;51.854;6.622;2023-05-10T04:41:42;66.68;;;31.88;;
14203;SDS011;7185;51.854;6.622;2023-05-10T04:44:13;63.85;;;31.08;;
14203;SDS011;7185;51.854;6.622;2023-05-10T04:46:45;71.82;;;32.47;;
14203;SDS011;7185;51.854;6.622;2023-05-10T04:49:17;66.35;;;33.17;;
14203;SDS011;7185;51.854;6.622;2023-05-10T04:51:49;70.90;;;32.25;;
14203;SDS011;7185;51.854;6.622;2023-05-10T04:54:22;72.57;;;33.25;;
14203;SDS011;7185;51.854;6.622;2023-05-10T04:56:54;71.63;;;33.85;;
14203;SDS011;7185;51.854;6.622;2023-05-10T04:59:25;72.45;;;32.88;;
14203;SDS011;7185;51.854;6.622;2023-05-10T05:01:58;72.40;;;33.47;;
14203;SDS011;7185;51.854;6.622;2023-05-10T05:04:30;80.03;;;33.67;;
14203;SDS011;7185;51.854;6.622;2023-05-10T05:07:02;82.13;;;34.95;;
14203;SDS011;7185;51.854;6.622;2023-05-10T05:09:35;81.85;;;34.22;;
14203;SDS011;7185;51.854;6.622;2023-05-10T05:12:06;83.18;;;33.88;;
14203;SDS011;7185;51.854;6.622;2023-05-10T05:17:15;88.43;;;34.90;;
14203;SDS011;7185;51.854;6.622;2023-05-10T05:19:47;82.78;;;35.17;;
14203;SDS011;7185;51.854;6.622;2023-05-10T05:22:19;81.85;;;36.22;;
14203;SDS011;7185;51.854;6.622;2023-05-10T05:24:58;87.82;;;33.88;;
14203;SDS011;7185;51.854;6.622;2023-05-10T05:27:32;87.07;;;35.45;;
14203;SDS011;7185;51.854;6.622;2023-05-10T05:30:04;84.07;;;34.75;;
14203;SDS011;7185;51.854;6.622;2023-05-10T05:32:39;76.25;;;33.40;;
14203;SDS011;7185;51.854;6.622;2023-05-10T05:41:36;73.43;;;33.95;;
14203;SDS011;7185;51.854;6.622;2023-05-10T05:44:08;77.15;;;34.10;;
14203;SDS011;7185;51.854;6.622;2023-05-10T05:46:40;85.07;;;34.20;;
14203;SDS011;7185;51.854;6.622;2023-05-10T05:49:11;75.78;;;34.00;;
14203;SDS011;7185;51.854;6.622;2023-05-10T05:51:44;82.05;;;35.28;;
14203;SDS011;7185;51.854;6.622;2023-05-10T05:54:19;78.35;;;31.85;;
14203;SDS011;7185;51.854;6.622;2023-05-10T05:56:54;82.50;;;35.85;;
14203;SDS011;7185;51.854;6.622;2023-05-10T05:59:26;73.75;;;34.70;;
14203;SDS011;7185;51.854;6.622;2023-05-10T06:01:59;77.85;;;35.28;;
14203;SDS011;7185;51.854;6.622;2023-05-10T06:04:30;75.15;;;35.55;;
14203;SDS011;7185;51.854;6.622;2023-05-10T06:07:02;80.00;;;34.30;;
14203;SDS011;7185;51.854;6.622;2023-05-10T06:09:34;80.75;;;34.30;;
14203;SDS011;7185;51.854;6.622;2023-05-10T06:12:07;80.43;;;33.50;;
14203;SDS011;7185;51.854;6.622;2023-05-10T06:14:39;76.93;;;33.05;;
14203;SDS011;7185;51.854;6.622;2023-05-10T06:17:10;74.95;;;33.22;;
14203;SDS011;7185;51.854;6.622;2023-05-10T06:19:42;71.47;;;33.28;;
14203;SDS011;7185;51.854;6.622;2023-05-10T06:22:14;77.25;;;33.45;;
14203;SDS011;7185;51.854;6.622;2023-05-10T06:24:46;70.45;;;32.85;;
14203;SDS011;7185;51.854;6.622;2023-05-10T06:27:19;67.88;;;31.58;;
14203;SDS011;7185;51.854;6.622;2023-05-10T06:29:50;76.93;;;33.75;;
14203;SDS011;7185;51.854;6.622;2023-05-10T06:32:22;73.07;;;32.60;;
14203;SDS011;7185;51.854;6.622;2023-05-10T06:34:54;73.90;;;34.17;;
14203;SDS011;7185;51.854;6.622;2023-05-10T06:37:26;75.63;;;33.00;;
14203;SDS011;7185;51.854;6.622;2023-05-10T06:40:09;71.65;;;32.53;;
14203;SDS011;7185;51.854;6.622;2023-05-10T06:42:43;69.88;;;32.78;;
14203;SDS011;7185;51.854;6.622;2023-05-10T06:45:16;77.93;;;32.85;;
14203;SDS011;7185;51.854;6.622;2023-05-10T06:47:48;65.82;;;31.52;;
14203;SDS011;7185;51.854;6.622;2023-05-10T06:50:19;74.68;;;33.13;;
14203;SDS011;7185;51.854;6.622;2023-05-10T06:52:51;70.50;;;31.60;;
14203;SDS011;7185;51.854;6.622;2023-05-10T06:55:23;67.30;;;30.50;;
14203;SDS011;7185;51.854;6.622;2023-05-10T06:57:57;72.25;;;33.95;;
14203;SDS011;7185;51.854;6.622;2023-05-10T07:00:28;69.90;;;31.95;;
14203;SDS011;7185;51.854;6.622;2023-05-10T07:03:00;71.43;;;32.47;;
14203;SDS011;7185;51.854;6.622;2023-05-10T07:05:32;73.38;;;32.95;;
14203;SDS011;7185;51.854;6.622;2023-05-10T07:08:03;67.55;;;32.13;;
14203;SDS011;7185;51.854;6.622;2023-05-10T07:10:35;62.83;;;30.35;;
14203;SDS011;7185;51.854;6.622;2023-05-10T07:13:08;66.13;;;30.40;;
14203;SDS011;7185;51.854;6.622;2023-05-10T07:16:14;60.13;;;30.73;;
14203;SDS011;7185;51.854;6.622;2023-05-10T07:18:46;59.30;;;29.60;;
14203;SDS011;7185;51.854;6.622;2023-05-10T07:21:17;59.05;;;30.02;;
14203;SDS011;7185;51.854;6.622;2023-05-10T07:23:49;55.05;;;30.23;;
14203;SDS011;7185;51.854;6.622;2023-05-10T07:26:21;55.30;;;27.75;;
14203;SDS011;7185;51.854;6.622;2023-05-10T07:28:55;56.25;;;27.13;;
14203;SDS011;7185;51.854;6.622;2023-05-10T07:31:27;54.13;;;26.98;;
14203;SDS011;7185;51.854;6.622;2023-05-10T07:33:58;49.78;;;26.33;;
14203;SDS011;7185;51.854;6.622;2023-05-10T07:36:30;49.38;;;26.02;;
14203;SDS011;7185;51.854;6.622;2023-05-10T07:39:02;49.85;;;26.15;;
14203;SDS011;7185;51.854;6.622;2023-05-10T07:41:34;53.63;;;26.58;;
14203;SDS011;7185;51.854;6.622;2023-05-10T07:44:09;47.78;;;24.88;;
14203;SDS011;7185;51.854;6.622;2023-05-10T07:46:40;53.58;;;26.02;;
14203;SDS011;7185;51.854;6.622;2023-05-10T07:49:12;49.40;;;24.52;;
14203;SDS011;7185;51.854;6.622;2023-05-10T07:51:43;50.15;;;26.83;;
14203;SDS011;7185;51.854;6.622;2023-05-10T07:54:18;45.97;;;24.20;;
14203;SDS011;7185;51.854;6.622;2023-05-10T07:56:50;48.08;;;26.70;;
14203;SDS011;7185;51.854;6.622;2023-05-10T07:59:23;43.72;;;24.35;;
14203;SDS011;7185;51.854;6.622;2023-05-10T08:01:55;41.05;;;23.70;;
14203;SDS011;7185;51.854;6.622;2023-05-10T08:04:53;44.35;;;23.52;;
14203;SDS011;7185;51.854;6.622;2023-05-10T08:07:38;44.55;;;22.77;;
14203;SDS011;7185;51.854;6.622;2023-05-10T08:10:10;42.03;;;22.38;;
14203;SDS011;7185;51.854;6.622;2023-05-10T08:12:43;40.00;;;21.33;;
14203;SDS011;7185;51.854;6.622;2023-05-10T08:15:16;38.38;;;20.33;;
14203;SDS011;7185;51.854;6.622;2023-05-10T08:17:48;36.47;;;20.10;;
14203;SDS011;7185;51.854;6.622;2023-05-10T08:20:19;32.80;;;19.58;;
14203;SDS011;7185;51.854;6.622;2023-05-10T08:22:51;31.67;;;17.63;;
14203;SDS011;7185;51.854;6.622;2023-05-10T08:25:23;34.55;;;17.52;;
14203;SDS011;7185;51.854;6.622;2023-05-10T08:28:01;30.77;;;17.35;;
14203;SDS011;7185;51.854;6.622;2023-05-10T08:30:46;29.67;;;17.25;;
14203;SDS011;7185;51.854;6.622;2023-05-10T08:33:18;30.10;;;15.98;;
14203;SDS011;7185;51.854;6.622;2023-05-10T08:35:56;27.17;;;15.90;;
14203;SDS011;7185;51.854;6.622;2023-05-10T08:38:28;26.27;;;15.90;;
14203;SDS011;7185;51.854;6.622;2023-05-10T08:41:01;33.25;;;17.23;;
14203;SDS011;7185;51.854;6.622;2023-05-10T08:43:34;29.13;;;16.27;;
14203;SDS011;7185;51.854;6.622;2023-05-10T08:46:09;34.42;;;17.38;;
14203;SDS011;7185;51.854;6.622;2023-05-10T08:48:41;34.10;;;16.98;;
14203;SDS011;7185;51.854;6.622;2023-05-10T08:51:17;31.98;;;18.00;;
14203;SDS011;7185;51.854;6.622;2023-05-10T08:56:51;37.03;;;18.45;;
14203;SDS011;7185;51.854;6.622;2023-05-10T08:59:25;35.42;;;17.63;;
14203;SDS011;7185;51.854;6.622;2023-05-10T09:01:58;33.28;;;17.92;;
14203;SDS011;7185;51.854;6.622;2023-05-10T09:04:32;34.90;;;17.23;;
14203;SDS011;7185;51.854;6.622;2023-05-10T09:07:04;34.38;;;17.60;;
14203;SDS011;7185;51.854;6.622;2023-05-10T09:09:47;34.20;;;18.17;;
14203;SDS011;7185;51.854;6.622;2023-05-10T09:12:27;33.03;;;19.17;;
14203;SDS011;7185;51.854;6.622;2023-05-10T09:15:13;37.33;;;18.75;;
14203;SDS011;7185;51.854;6.622;2023-05-10T09:17:47;36.13;;;18.35;;
14203;SDS011;7185;51.854;6.622;2023-05-10T09:20:20;36.47;;;18.83;;
14203;SDS011;7185;51.854;6.622;2023-05-10T09:22:52;34.40;;;17.85;;
14203;SDS011;7185;51.854;6.622;2023-05-10T09:25:25;39.03;;;19.08;;
14203;SDS011;7185;51.854;6.622;2023-05-10T09:27:57;37.25;;;18.02;;
14203;SDS011;7185;51.854;6.622;2023-05-10T09:30:29;38.35;;;18.20;;
14203;SDS011;7185;51.854;6.622;2023-05-10T09:33:03;31.23;;;17.10;;
14203;SDS011;7185;51.854;6.622;2023-05-10T09:35:35;32.67;;;17.02;;
14203;SDS011;7185;51.854;6.622;2023-05-10T09:38:06;35.30;;;16.80;;
14203;SDS011;7185;51.854;6.622;2023-05-10T09:40:38;32.92;;;16.38;;
14203;SDS011;7185;51.854;6.622;2023-05-10T09:43:10;32.30;;;16.45;;
14203;SDS011;7185;51.854;6.622;2023-05-10T09:45:41;29.83;;;16.50;;
14203;SDS011;7185;51.854;6.622;2023-05-10T09:48:14;30.60;;;16.05;;
14203;SDS011;7185;51.854;6.622;2023-05-10T09:50:46;30.52;;;16.63;;
14203;SDS011;7185;51.854;6.622;2023-05-10T09:53:28;28.50;;;15.77;;
14203;SDS011;7185;51.854;6.622;2023-05-10T09:56:00;29.98;;;15.50;;
14203;SDS011;7185;51.854;6.622;2023-05-10T09:58:32;30.52;;;16.00;;
14203;SDS011;7185;51.854;6.622;2023-05-10T10:01:10;36.77;;;16.70;;
14203;SDS011;7185;51.854;6.622;2023-05-10T10:03:43;30.67;;;18.02;;
14203;SDS011;7185;51.854;6.622;2023-05-10T10:06:18;34.35;;;18.60;;
14203;SDS011;7185;51.854;6.622;2023-05-10T10:09:28;31.27;;;17.13;;
14203;SDS011;7185;51.854;6.622;2023-05-10T10:11:53;37.38;;;18.10;;
14203;SDS011;7185;51.854;6.622;2023-05-10T10:14:29;38.83;;;18.13;;
14203;SDS011;7185;51.854;6.622;2023-05-10T10:17:01;32.35;;;17.13;;
14203;SDS011;7185;51.854;6.622;2023-05-10T10:19:42;39.13;;;19.50;;
14203;SDS011;7185;51.854;6.622;2023-05-10T10:22:14;41.30;;;20.27;;
14203;SDS011;7185;51.854;6.622;2023-05-10T10:24:46;39.22;;;20.60;;
14203;SDS011;7185;51.854;6.622;2023-05-10T10:27:20;34.90;;;18.67;;
14203;SDS011;7185;51.854;6.622;2023-05-10T10:29:59;33.10;;;17.30;;
14203;SDS011;7185;51.854;6.622;2023-05-10T10:32:50;32.95;;;17.42;;
14203;SDS011;7185;51.854;6.622;2023-05-10T10:35:34;26.60;;;15.65;;
14203;SDS011;7185;51.854;6.622;2023-05-10T10:38:07;28.88;;;14.40;;
14203;SDS011;7185;51.854;6.622;2023-05-10T10:40:39;30.90;;;16.58;;
14203;SDS011;7185;51.854;6.622;2023-05-10T10:43:20;30.05;;;17.58;;
14203;SDS011;7185;51.854;6.622;2023-05-10T10:46:14;29.92;;;17.88;;
14203;SDS011;7185;51.854;6.622;2023-05-10T10:48:47;31.30;;;17.05;;
14203;SDS011;7185;51.854;6.622;2023-05-10T10:51:22;31.50;;;17.63;;
14203;SDS011;7185;51.854;6.622;2023-05-10T10:53:54;33.55;;;17.33;;
14203;SDS011;7185;51.854;6.622;2023-05-10T10:56:40;34.85;;;19.08;;
14203;SDS011;7185;51.854;6.622;2023-05-10T10:59:12;31.70;;;18.08;;
14203;SDS011;7185;51.854;6.622;2023-05-10T11:01:49;36.15;;;18.83;;
14203;SDS011;7185;51.854;6.622;2023-05-10T11:04:23;38.60;;;20.80;;
14203;SDS011;7185;51.854;6.622;2023-05-10T11:09:54;32.80;;;18.60;;
14203;SDS011;7185;51.854;6.622;2023-05-10T11:12:57;34.58;;;20.35;;
14203;SDS011;7185;51.854;6.622;2023-05-10T11:15:39;34.33;;;20.35;;
14203;SDS011;7185;51.854;6.622;2023-05-10T11:18:19;37.97;;;20.40;;
14203;SDS011;7185;51.854;6.622;2023-05-10T11:20:56;33.10;;;19.00;;
14203;SDS011;7185;51.854;6.622;2023-05-10T11:23:47;30.75;;;18.05;;
14203;SDS011;7185;51.854;6.622;2023-05-10T11:26:20;34.28;;;19.75;;
14203;SDS011;7185;51.854;6.622;2023-05-10T11:28:55;35.42;;;19.77;;
14203;SDS011;7185;51.854;6.622;2023-05-10T11:31:31;34.08;;;19.63;;
14203;SDS011;7185;51.854;6.622;2023-05-10T11:34:03;32.47;;;18.92;;
14203;SDS011;7185;51.854;6.622;2023-05-10T11:36:35;28.95;;;17.80;;
14203;SDS011;7185;51.854;6.622;2023-05-10T11:39:09;29.40;;;16.70;;
14203;SDS011;7185;51.854;6.622;2023-05-10T11:41:48;29.15;;;16.73;;
14203;SDS011;7185;51.854;6.622;2023-05-10T11:44:20;31.00;;;17.30;;
14203;SDS011;7185;51.854;6.622;2023-05-10T11:47:11;32.65;;;17.77;;
14203;SDS011;7185;51.854;6.622;2023-05-10T11:49:49;32.55;;;18.55;;
14203;SDS011;7185;51.854;6.622;2023-05-10T11:52:23;32.80;;;19.65;;
14203;SDS011;7185;51.854;6.622;2023-05-10T11:54:57;31.25;;;17.55;;
14203;SDS011;7185;51.854;6.622;2023-05-10T11:57:28;29.30;;;16.52;;
14203;SDS011;7185;51.854;6.622;2023-05-10T12:00:01;35.83;;;17.08;;
14203;SDS011;7185;51.854;6.622;2023-05-10T12:02:42;37.58;;;17.85;;
14203;SDS011;7185;51.854;6.622;2023-05-10T12:05:31;26.02;;;14.20;;
14203;SDS011;7185;51.854;6.622;2023-05-10T12:08:10;25.30;;;13.82;;
14203;SDS011;7185;51.854;6.622;2023-05-10T12:10:44;22.30;;;13.05;;
14203;SDS011;7185;51.854;6.622;2023-05-10T12:13:20;26.75;;;12.95;;
14203;SDS011;7185;51.854;6.622;2023-05-10T12:15:51;25.33;;;13.35;;
14203;SDS011;7185;51.854;6.622;2023-05-10T12:18:24;26.67;;;13.52;;
14203;SDS011;7185;51.854;6.622;2023-05-10T12:20:56;23.40;;;12.02;;
14203;SDS011;7185;51.854;6.622;2023-05-10T12:23:34;18.98;;;11.35;;
14203;SDS011;7185;51.854;6.622;2023-05-10T12:26:11;21.23;;;11.25;;
14203;SDS011;7185;51.854;6.622;2023-05-10T12:28:55;18.85;;;10.80;;
14203;SDS011;7185;51.854;6.622;2023-05-10T12:31:49;20.50;;;10.85;;
14203;SDS011;7185;51.854;6.622;2023-05-10T12:34:34;17.33;;;10.18;;
14203;SDS011;7185;51.854;6.622;2023-05-10T12:37:08;16.65;;;9.30;;
14203;SDS011;7185;51.854;6.622;2023-05-10T12:39:50;17.83;;;10.55;;
14203;SDS011;7185;51.854;6.622;2023-05-10T12:42:26;19.10;;;9.82;;
14203;SDS011;7185;51.854;6.622;2023-05-10T12:44:57;18.40;;;10.13;;
14203;SDS011;7185;51.854;6.622;2023-05-10T12:47:41;18.02;;;10.15;;
14203;SDS011;7185;51.854;6.622;2023-05-10T12:50:18;19.10;;;10.30;;
14203;SDS011;7185;51.854;6.622;2023-05-10T12:52:50;17.05;;;9.82;;
14203;SDS011;7185;51.854;6.622;2023-05-10T12:55:22;19.20;;;10.55;;
14203;SDS011;7185;51.854;6.622;2023-05-10T12:57:58;15.27;;;9.73;;
14203;SDS011;7185;51.854;6.622;2023-05-10T13:00:34;19.17;;;10.32;;
14203;SDS011;7185;51.854;6.622;2023-05-10T13:03:22;19.42;;;10.65;;
14203;SDS011;7185;51.854;6.622;2023-05-10T13:05:58;20.83;;;11.05;;
14203;SDS011;7185;51.854;6.622;2023-05-10T13:08:29;17.23;;;9.77;;
14203;SDS011;7185;51.854;6.622;2023-05-10T13:11:03;22.55;;;10.30;;
14203;SDS011;7185;51.854;6.622;2023-05-10T13:13:39;19.05;;;10.57;;
14203;SDS011;7185;51.854;6.622;2023-05-10T13:16:12;21.80;;;10.13;;
14203;SDS011;7185;51.854;6.622;2023-05-10T13:18:45;18.83;;;10.80;;
14203;SDS011;7185;51.854;6.622;2023-05-10T13:21:17;19.42;;;11.18;;
14203;SDS011;7185;51.854;6.622;2023-05-10T13:23:50;19.27;;;11.60;;
14203;SDS011;7185;51.854;6.622;2023-05-10T13:26:28;22.23;;;11.45;;
14203;SDS011;7185;51.854;6.622;2023-05-10T13:29:07;19.10;;;11.70;;
14203;SDS011;7185;51.854;6.622;2023-05-10T13:31:55;19.92;;;10.77;;
14203;SDS011;7185;51.854;6.622;2023-05-10T13:34:29;22.25;;;12.57;;
14203;SDS011;7185;51.854;6.622;2023-05-10T13:37:12;20.45;;;11.80;;
14203;SDS011;7185;51.854;6.622;2023-05-10T13:39:44;21.75;;;12.55;;
14203;SDS011;7185;51.854;6.622;2023-05-10T13:42:16;20.70;;;11.93;;
14203;SDS011;7185;51.854;6.622;2023-05-10T13:44:50;19.25;;;11.65;;
14203;SDS011;7185;51.854;6.622;2023-05-10T13:47:45;24.10;;;13.05;;
14203;SDS011;7185;51.854;6.622;2023-05-10T13:50:20;24.10;;;12.48;;
14203;SDS011;7185;51.854;6.622;2023-05-10T13:52:54;24.60;;;13.27;;
14203;SDS011;7185;51.854;6.622;2023-05-10T13:55:31;24.58;;;13.48;;
14203;SDS011;7185;51.854;6.622;2023-05-10T13:58:11;21.95;;;12.95;;
14203;SDS011;7185;51.854;6.622;2023-05-10T14:01:02;24.25;;;13.30;;
14203;SDS011;7185;51.854;6.622;2023-05-10T14:03:44;21.75;;;12.63;;
14203;SDS011;7185;51.854;6.622;2023-05-10T14:06:22;24.35;;;13.00;;
14203;SDS011;7185;51.854;6.622;2023-05-10T14:08:53;20.92;;;12.40;;
14203;SDS011;7185;51.854;6.622;2023-05-10T14:11:26;24.27;;;12.00;;
14203;SDS011;7185;51.854;6.622;2023-05-10T14:14:03;23.77;;;11.65;;
14203;SDS011;7185;51.854;6.622;2023-05-10T14:16:45;18.95;;;11.20;;
14203;SDS011;7185;51.854;6.622;2023-05-10T14:19:18;19.65;;;11.88;;
14203;SDS011;7185;51.854;6.622;2023-05-10T14:21:53;17.55;;;11.35;;
14203;SDS011;7185;51.854;6.622;2023-05-10T14:24:38;18.42;;;11.60;;
14203;SDS011;7185;51.854;6.622;2023-05-10T14:27:10;19.13;;;10.93;;
14203;SDS011;7185;51.854;6.622;2023-05-10T14:29:41;19.65;;;11.52;;
14203;SDS011;7185;51.854;6.622;2023-05-10T14:32:19;18.83;;;11.07;;
14203;SDS011;7185;51.854;6.622;2023-05-10T14:34:54;17.80;;;10.13;;
14203;SDS011;7185;51.854;6.622;2023-05-10T14:40:01;17.83;;;10.10;;
14203;SDS011;7185;51.854;6.622;2023-05-10T14:42:34;21.92;;;10.13;;
14203;SDS011;7185;51.854;6.622;2023-05-10T14:45:08;21.50;;;10.23;;
14203;SDS011;7185;51.854;6.622;2023-05-10T14:47:42;17.58;;;9.85;;
14203;SDS011;7185;51.854;6.622;2023-05-10T14:50:14;19.92;;;10.55;;
14203;SDS011;7185;51.854;6.622;2023-05-10T14:52:46;16.48;;;8.93;;
14203;SDS011;7185;51.854;6.622;2023-05-10T14:55:18;16.25;;;9.65;;
14203;SDS011;7185;51.854;6.622;2023-05-10T14:57:50;19.95;;;10.93;;
14203;SDS011;7185;51.854;6.622;2023-05-10T15:00:22;17.73;;;9.30;;
14203;SDS011;7185;51.854;6.622;2023-05-10T15:02:55;18.73;;;9.75;;
14203;SDS011;7185;51.854;6.622;2023-05-10T15:05:27;20.40;;;8.60;;
14203;SDS011;7185;51.854;6.622;2023-05-10T15:07:59;16.05;;;9.25;;
14203;SDS011;7185;51.854;6.622;2023-05-10T15:10:30;18.30;;;9.10;;
14203;SDS011;7185;51.854;6.622;2023-05-10T15:13:03;14.38;;;8.20;;
14203;SDS011;7185;51.854;6.622;2023-05-10T15:15:34;12.25;;;8.25;;
14203;SDS011;7185;51.854;6.622;2023-05-10T15:18:08;14.48;;;8.63;;
14203;SDS011;7185;51.854;6.622;2023-05-10T15:20:40;16.60;;;8.40;;
14203;SDS011;7185;51.854;6.622;2023-05-10T15:23:18;12.70;;;7.50;;
14203;SDS011;7185;51.854;6.622;2023-05-10T15:25:56;14.70;;;8.38;;
14203;SDS011;7185;51.854;6.622;2023-05-10T15:28:37;18.05;;;9.80;;
14203;SDS011;7185;51.854;6.622;2023-05-10T15:31:50;20.17;;;10.68;;
14203;SDS011;7185;51.854;6.622;2023-05-10T15:34:36;20.15;;;11.65;;
14203;SDS011;7185;51.854;6.622;2023-05-10T15:37:11;21.10;;;10.98;;
14203;SDS011;7185;51.854;6.622;2023-05-10T15:39:43;22.02;;;11.73;;
14203;SDS011;7185;51.854;6.622;2023-05-10T15:42:15;22.63;;;12.75;;
14203;SDS011;7185;51.854;6.622;2023-05-10T15:44:47;20.70;;;12.00;;
14203;SDS011;7185;51.854;6.622;2023-05-10T15:47:20;27.15;;;13.30;;
14203;SDS011;7185;51.854;6.622;2023-05-10T15:49:53;22.92;;;11.95;;
14203;SDS011;7185;51.854;6.622;2023-05-10T15:52:25;19.80;;;12.40;;